Time;durP1;ratioP1;P1;durP2;ratioP2;P2;SDS_P1;SDS_P2;PMS_P1;PMS_P2;Temp;Humidity;BMP_temperature;BMP_pressure;BME280_temperature;BME280_humidity;BME280_pressure;Samples;Min_cycle;Max_cycle;Signal;HPM_P1;HPM_P2
2021/04/26 00:02:23;;;;;;;7.10;3.42;;;;;;;2.80;62.97;99954.81;5013006;28;20392;-60
2021/04/26 00:04:49;;;;;;;8.23;4.10;;;;;;;2.87;63.15;99951.44;5028892;28;20468;-60
2021/04/26 00:07:14;;;;;;;8.40;3.80;;;;;;;2.68;62.98;99945.59;5012775;28;20137;-59
2021/04/26 00:09:40;;;;;;;7.43;4.20;;;;;;;2.60;65.33;99950.94;5013434;28;20492;-60
2021/04/26 00:12:05;;;;;;;9.18;3.80;;;;;;;2.41;64.63;99952.19;5012921;28;20408;-60
2021/04/26 00:14:31;;;;;;;8.82;4.47;;;;;;;2.35;65.06;99950.22;5013446;28;20044;-60
2021/04/26 00:16:56;;;;;;;10.70;4.82;;;;;;;2.50;63.66;99942.41;5012841;28;20037;-60
2021/04/26 00:19:22;;;;;;;7.18;3.88;;;;;;;2.35;64.12;99943.13;5013462;28;20472;-60
2021/04/26 00:21:47;;;;;;;9.68;4.18;;;;;;;2.31;64.35;99939.16;5012820;28;20069;-60
2021/04/26 00:24:12;;;;;;;9.48;3.92;;;;;;;2.36;64.21;99944.75;5013335;28;20072;-60
2021/04/26 00:26:38;;;;;;;9.15;4.28;;;;;;;2.30;64.35;99948.09;5012787;28;20513;-60
2021/04/26 00:29:03;;;;;;;7.32;3.70;;;;;;;2.26;64.76;99941.50;5013228;28;20040;-60
2021/04/26 00:31:29;;;;;;;7.07;3.78;;;;;;;2.20;66.01;99941.34;5012735;28;20038;-60
2021/04/26 00:33:54;;;;;;;8.07;4.18;;;;;;;2.19;65.36;99929.94;5013306;28;20022;-60
2021/04/26 00:36:20;;;;;;;7.45;4.05;;;;;;;2.11;65.09;99927.34;5012761;28;20119;-60
2021/04/26 00:38:45;;;;;;;7.50;3.88;;;;;;;2.07;65.31;99926.00;5014132;28;20084;-60
2021/04/26 00:41:10;;;;;;;7.38;3.90;;;;;;;1.98;66.10;99927.06;5016779;28;20038;-60
2021/04/26 00:43:36;;;;;;;7.45;3.80;;;;;;;1.87;66.47;99936.16;5017232;28;20018;-60
2021/04/26 00:46:01;;;;;;;6.25;3.78;;;;;;;1.73;66.83;99924.47;4998923;28;20037;-61
2021/04/26 00:48:27;;;;;;;8.90;3.97;;;;;;;1.73;68.59;99917.34;5016960;28;20025;-60
2021/04/26 00:50:52;;;;;;;7.50;3.50;;;;;;;1.62;67.02;99922.16;5016745;28;20046;-60
2021/04/26 00:53:17;;;;;;;6.10;3.38;;;;;;;1.66;66.77;99920.84;5017048;28;20053;-60
2021/04/26 00:55:43;;;;;;;7.47;3.08;;;;;;;1.68;66.35;99921.50;5016465;28;20611;-60
2021/04/26 00:58:09;;;;;;;5.13;3.15;;;;;;;1.62;66.84;99922.16;5015658;28;20076;-60
2021/04/26 01:00:35;;;;;;;6.22;3.20;;;;;;;1.57;67.08;99913.91;5016462;28;20029;-60
2021/04/26 01:03:00;;;;;;;7.78;3.67;;;;;;;1.62;67.22;99911.56;5017018;28;20531;-60
2021/04/26 01:05:27;;;;;;;6.45;3.40;;;;;;;1.64;66.59;99918.34;5028227;28;20038;-60
2021/04/26 01:07:53;;;;;;;6.28;3.50;;;;;;;1.66;66.97;99911.06;4997007;28;20050;-60
2021/04/26 01:10:20;;;;;;;8.57;3.47;;;;;;;1.73;65.82;99908.59;4996441;28;20037;-59
2021/04/26 01:12:48;;;;;;;6.78;3.60;;;;;;;1.65;65.94;99911.28;5012018;28;20042;-60
2021/04/26 01:15:34;;;;;;;7.57;3.55;;;;;;;1.48;66.75;99910.47;4996496;28;20041;-60
2021/04/26 01:18:05;;;;;;;6.57;2.95;;;;;;;1.33;67.33;99907.66;5011916;28;20461;-60
2021/04/26 01:20:39;;;;;;;8.23;3.65;;;;;;;1.32;67.21;99908.63;5011383;28;20093;-60
2021/04/26 01:23:32;;;;;;;6.13;3.10;;;;;;;1.26;68.34;99917.22;4996674;28;20084;-59
2021/04/26 01:25:57;;;;;;;5.70;3.58;;;;;;;1.34;67.70;99911.94;5003977;28;20041;-60
2021/04/26 01:28:32;;;;;;;9.38;3.60;;;;;;;1.38;67.12;99913.28;4998648;28;20022;-60
2021/04/26 01:31:09;;;;;;;5.75;3.17;;;;;;;1.32;68.28;99911.28;5015583;28;20034;-60
2021/04/26 01:33:38;;;;;;;5.50;3.35;;;;;;;1.36;69.24;99917.88;5015995;28;20519;-60
2021/04/26 01:36:04;;;;;;;6.70;3.03;;;;;;;1.33;68.31;99905.03;4989458;28;20121;-60
2021/04/26 01:38:37;;;;;;;7.80;3.75;;;;;;;1.50;66.86;99905.84;4994447;28;20041;-60
2021/04/26 01:41:02;;;;;;;5.50;3.60;;;;;;;1.46;67.18;99897.41;5010939;28;20037;-60
2021/04/26 01:43:28;;;;;;;7.13;3.60;;;;;;;1.36;68.19;99896.75;4978976;28;20030;-60
2021/04/26 01:45:55;;;;;;;8.57;3.95;;;;;;;1.11;68.43;99889.84;4994873;28;20030;-60
2021/04/26 01:48:21;;;;;;;8.57;3.85;;;;;;;1.09;68.49;99890.00;4996354;28;20023;-60
2021/04/26 01:50:46;;;;;;;8.65;3.25;;;;;;;1.46;66.24;99886.84;4978452;28;20568;-60
2021/04/26 01:53:12;;;;;;;7.20;3.28;;;;;;;1.27;67.25;99879.25;4995065;28;20077;-60
2021/04/26 01:55:37;;;;;;;4.72;3.33;;;;;;;1.16;67.88;99882.25;4994589;28;20050;-59
2021/04/26 01:58:03;;;;;;;7.10;2.97;;;;;;;1.11;69.55;99887.19;4995200;28;20026;-60
2021/04/26 02:00:29;;;;;;;5.88;3.50;;;;;;;1.04;68.71;99879.91;4978281;28;20497;-60
2021/04/26 02:02:55;;;;;;;6.93;3.40;;;;;;;1.08;67.77;99873.34;4996100;28;20029;-60
2021/04/26 02:05:21;;;;;;;6.50;3.45;;;;;;;0.95;71.75;99873.00;4994464;28;20057;-59
2021/04/26 02:07:47;;;;;;;5.35;3.10;;;;;;;0.98;69.29;99872.69;4994541;28;20449;-60
2021/04/26 02:10:12;;;;;;;6.10;3.30;;;;;;;0.97;73.16;99865.72;5010620;28;20022;-59
2021/04/26 02:12:38;;;;;;;4.05;2.58;;;;;;;0.89;69.92;99871.00;4994737;28;20098;-60
2021/04/26 02:15:07;;;;;;;4.80;3.10;;;;;;;0.77;69.08;99877.59;4995933;28;20029;-59
2021/04/26 02:17:32;;;;;;;6.25;3.00;;;;;;;0.57;70.30;99875.25;5030464;28;20042;-60
2021/04/26 02:19:57;;;;;;;5.63;2.85;;;;;;;0.62;71.57;99880.88;5030531;28;20033;-60
2021/04/26 02:22:23;;;;;;;6.05;3.28;;;;;;;0.74;70.15;99870.81;5014935;28;20114;-60
2021/04/26 02:24:49;;;;;;;5.32;3.42;;;;;;;0.69;69.26;99872.31;5015405;28;20060;-60
2021/04/26 02:27:14;;;;;;;6.35;2.92;;;;;;;0.62;69.02;99865.06;5014784;28;20034;-60
2021/04/26 02:29:39;;;;;;;6.05;3.42;;;;;;;0.49;69.85;99854.13;4997592;28;20037;-59
2021/04/26 02:32:08;;;;;;;7.25;3.50;;;;;;;0.54;69.62;99856.28;5014690;28;20492;-60
2021/04/26 02:34:42;;;;;;;4.85;3.13;;;;;;;0.82;69.00;99851.53;5014938;28;20431;-59
2021/04/26 02:37:54;;;;;;;6.22;3.50;;;;;;;0.59;70.68;99851.34;4980044;28;20539;-61
2021/04/26 02:40:19;;;;;;;6.32;3.42;;;;;;;0.45;69.96;99844.06;4986968;28;20070;-60
2021/04/26 02:42:46;;;;;;;7.40;3.10;;;;;;;0.78;68.43;99844.97;5013546;28;20060;-61
2021/04/26 02:45:14;;;;;;;8.15;3.13;;;;;;;0.66;68.59;99841.81;5029831;28;20029;-60
2021/04/26 02:47:40;;;;;;;5.25;2.85;;;;;;;0.49;69.61;99837.50;5015045;28;20160;-60
2021/04/26 02:50:06;;;;;;;4.40;3.00;;;;;;;0.42;69.59;99824.97;5013074;28;20026;-60
2021/04/26 02:52:32;;;;;;;6.40;3.60;;;;;;;0.50;69.31;99821.50;4997137;28;20033;-60
2021/04/26 02:54:58;;;;;;;10.77;3.28;;;;;;;0.56;69.01;99828.75;5030072;28;20022;-60
2021/04/26 02:57:23;;;;;;;5.00;3.20;;;;;;;0.55;69.47;99826.28;4993590;28;20045;-60
2021/04/26 02:59:49;;;;;;;5.18;3.10;;;;;;;0.43;70.61;99817.88;4993984;28;20397;-60
2021/04/26 03:02:14;;;;;;;5.25;3.10;;;;;;;0.38;71.43;99809.63;5012226;28;20485;-60
2021/04/26 03:04:41;;;;;;;4.88;3.15;;;;;;;0.44;72.15;99803.69;4997033;28;20033;-60
2021/04/26 03:07:07;;;;;;;6.50;3.45;;;;;;;0.33;70.96;99798.75;4976373;28;20054;-60
2021/04/26 03:09:32;;;;;;;4.75;3.13;;;;;;;0.20;70.74;99793.91;4974082;28;20058;-59
2021/04/26 03:11:58;;;;;;;8.50;3.65;;;;;;;0.23;70.98;99796.25;4989867;28;20043;-60
2021/04/26 03:14:24;;;;;;;6.22;3.55;;;;;;;-0.05;71.43;99793.03;4958002;28;20033;-60
2021/04/26 03:16:49;;;;;;;4.70;3.30;;;;;;;-0.21;72.23;99785.91;4973791;28;20387;-59
2021/04/26 03:19:16;;;;;;;5.72;3.15;;;;;;;-0.26;73.24;99796.91;4990301;28;20449;-60
2021/04/26 03:21:42;;;;;;;6.75;3.50;;;;;;;-0.29;73.06;99789.31;4987253;28;20089;-60
2021/04/26 03:24:08;;;;;;;6.20;3.05;;;;;;;-0.34;72.59;99782.88;4994551;28;20411;-59
2021/04/26 03:26:34;;;;;;;5.07;3.28;;;;;;;-0.26;72.58;99782.91;4980378;28;20035;-60
2021/04/26 03:28:59;;;;;;;6.88;3.15;;;;;;;-0.16;74.51;99782.78;4973805;28;20481;-60
2021/04/26 03:31:25;;;;;;;7.30;3.30;;;;;;;-0.15;71.71;99781.78;4974549;28;20133;-60
2021/04/26 03:33:51;;;;;;;7.20;3.20;;;;;;;-0.20;71.38;99781.44;4957723;28;20397;-59
2021/04/26 03:36:16;;;;;;;7.28;3.17;;;;;;;-0.05;71.44;99774.56;4973488;28;20035;-60
2021/04/26 03:38:42;;;;;;;4.95;3.10;;;;;;;0.27;69.97;99778.28;4989960;28;20034;-60
2021/04/26 03:41:07;;;;;;;6.25;3.25;;;;;;;0.53;69.67;99773.69;4973124;28;20069;-59
2021/04/26 03:43:33;;;;;;;6.05;3.30;;;;;;;0.05;70.21;99785.84;4974984;28;20476;-59
2021/04/26 03:45:58;;;;;;;6.47;2.90;;;;;;;-0.06;72.89;99778.22;4982274;28;20046;-60
2021/04/26 03:48:24;;;;;;;4.18;3.00;;;;;;;-0.09;74.41;99783.81;5009433;28;20022;-59
2021/04/26 03:50:49;;;;;;;5.50;3.28;;;;;;;-0.20;71.45;99786.72;4993734;28;20046;-60
2021/04/26 03:53:15;;;;;;;5.75;3.58;;;;;;;-0.27;72.12;99786.53;4994227;28;20362;-60
2021/04/26 03:55:41;;;;;;;8.50;4.57;;;;;;;-0.38;72.81;99784.19;4993871;28;20129;-61
2021/04/26 03:58:07;;;;;;;6.32;3.65;;;;;;;-0.43;72.69;99782.00;4994433;28;20057;-60
2021/04/26 04:00:33;;;;;;;7.47;3.55;;;;;;;-0.52;74.41;99788.25;4993043;28;20117;-60
2021/04/26 04:02:58;;;;;;;5.50;3.65;;;;;;;-0.45;73.14;99794.50;4993910;28;20033;-60
2021/04/26 04:05:24;;;;;;;6.28;3.53;;;;;;;-0.41;72.75;99790.59;4996719;28;20038;-60
2021/04/26 04:07:49;;;;;;;5.93;3.47;;;;;;;-0.51;72.97;99781.97;5026124;28;20057;-59
2021/04/26 04:10:15;;;;;;;11.82;3.58;;;;;;;-0.54;72.82;99779.66;5032707;28;20033;-59
2021/04/26 04:12:40;;;;;;;9.60;4.50;;;;;;;-0.46;73.77;99787.59;5015080;28;20156;-60
2021/04/26 04:15:07;;;;;;;6.88;4.00;;;;;;;-0.27;72.51;99792.63;5032273;28;20411;-61
2021/04/26 04:17:33;;;;;;;8.93;3.95;;;;;;;-0.16;72.43;99785.44;5033041;28;20036;-59
2021/04/26 04:19:59;;;;;;;10.10;4.20;;;;;;;0.17;71.07;99784.50;5033087;28;20041;-59
2021/04/26 04:22:24;;;;;;;4.57;3.53;;;;;;;0.17;70.34;99776.59;5032736;28;20399;-62
2021/04/26 04:24:49;;;;;;;6.78;3.55;;;;;;;0.59;69.01;99783.59;5015238;28;20037;-61
2021/04/26 04:27:15;;;;;;;7.00;3.30;;;;;;;1.08;67.43;99780.94;5032528;28;20107;-59
2021/04/26 04:29:41;;;;;;;9.30;4.00;;;;;;;2.33;62.87;99783.72;5033078;28;20025;-61
2021/04/26 04:32:06;;;;;;;5.38;3.13;;;;;;;3.42;59.15;99786.09;5032612;28;20046;-61
2021/04/26 04:34:32;;;;;;;6.50;3.50;;;;;;;3.55;56.42;99794.25;5033005;28;20033;-59
2021/04/26 04:36:58;;;;;;;5.03;3.08;;;;;;;2.49;60.75;99788.06;5032416;28;20045;-59
2021/04/26 04:39:24;;;;;;;5.75;3.38;;;;;;;2.79;59.83;99783.72;5032722;28;20021;-58
2021/04/26 04:41:49;;;;;;;7.97;3.00;;;;;;;3.59;57.44;99784.91;5032582;28;20051;-58
2021/04/26 04:44:14;;;;;;;7.88;2.75;;;;;;;5.58;50.97;99798.47;5015124;28;20033;-60
2021/04/26 04:46:40;;;;;;;5.05;3.05;;;;;;;6.61;47.44;99799.25;5032320;28;20044;-61
2021/04/26 04:49:06;;;;;;;8.98;2.90;;;;;;;6.87;45.95;99795.81;5048382;28;20025;-61
2021/04/26 04:51:31;;;;;;;5.65;2.80;;;;;;;7.71;44.64;99796.97;5032359;28;20447;-60
2021/04/26 04:53:57;;;;;;;10.43;2.90;;;;;;;8.35;42.49;99791.75;5031470;28;20390;-61
2021/04/26 04:56:22;;;;;;;10.77;2.78;;;;;;;9.22;40.18;99795.47;5032426;28;20391;-61
2021/04/26 04:58:48;;;;;;;10.10;2.95;;;;;;;8.84;40.59;99798.28;5032610;28;20464;-61
2021/04/26 05:01:13;;;;;;;3.92;2.65;;;;;;;9.18;39.50;99796.94;5032245;28;20048;-59
2021/04/26 05:03:39;;;;;;;7.28;2.70;;;;;;;9.00;39.80;99797.72;5032707;28;20380;-59
2021/04/26 05:06:04;;;;;;;6.22;2.80;;;;;;;10.18;38.11;99792.38;4998240;28;20500;-59
2021/04/26 05:08:30;;;;;;;6.40;2.60;;;;;;;10.45;37.46;99796.38;5032413;28;20399;-59
2021/04/26 05:10:55;;;;;;;9.43;3.00;;;;;;;10.97;35.90;99799.28;5031978;28;20056;-61
2021/04/26 05:13:24;;;;;;;4.03;2.47;;;;;;;11.81;34.03;99796.38;5032865;28;20025;-61
2021/04/26 05:15:49;;;;;;;6.63;2.67;;;;;;;10.32;36.41;99802.72;5030907;28;20099;-61
2021/04/26 05:18:15;;;;;;;6.80;2.40;;;;;;;10.60;35.70;99813.91;5015125;28;20472;-61
2021/04/26 05:20:40;;;;;;;8.32;2.58;;;;;;;10.55;36.65;99812.72;5031968;28;20377;-59
2021/04/26 05:23:06;;;;;;;6.53;2.75;;;;;;;12.08;33.51;99811.97;5032404;28;20052;-59
2021/04/26 05:25:31;;;;;;;6.38;2.50;;;;;;;11.20;34.67;99808.41;5033967;28;20049;-59
2021/04/26 05:27:57;;;;;;;7.90;2.65;;;;;;;12.50;32.92;99812.56;5036372;28;20021;-59
2021/04/26 05:30:22;;;;;;;4.57;2.45;;;;;;;11.87;34.13;99803.50;5035646;28;20099;-59
2021/04/26 05:32:48;;;;;;;8.32;2.92;;;;;;;12.01;33.74;99798.69;5036161;28;20087;-59
2021/04/26 05:35:14;;;;;;;14.00;3.25;;;;;;;14.32;29.42;99799.59;5018127;28;20088;-60
2021/04/26 05:37:39;;;;;;;8.13;3.13;;;;;;;13.84;30.03;99802.00;5023294;28;20025;-59
2021/04/26 05:40:05;;;;;;;5.95;2.90;;;;;;;13.36;31.19;99798.13;5016122;28;20427;-60
2021/04/26 05:42:30;;;;;;;4.68;2.40;;;;;;;13.63;30.65;99805.47;5016207;28;20354;-60
2021/04/26 05:44:56;;;;;;;5.18;2.60;;;;;;;14.21;29.90;99806.78;5016364;28;20022;-60
2021/04/26 05:47:21;;;;;;;7.85;2.83;;;;;;;14.92;28.75;99800.50;5015705;28;20404;-59
2021/04/26 05:49:47;;;;;;;8.32;2.85;;;;;;;15.04;28.31;99806.53;5016030;28;20388;-61
2021/04/26 05:52:12;;;;;;;8.13;2.80;;;;;;;15.18;28.21;99798.81;5015716;28;20424;-59
2021/04/26 05:54:37;;;;;;;6.43;2.75;;;;;;;14.64;29.40;99805.91;5016304;28;20460;-59
2021/04/26 05:57:03;;;;;;;9.98;2.85;;;;;;;14.77;28.72;99804.66;5015592;28;20496;-59
2021/04/26 05:59:28;;;;;;;17.15;3.42;;;;;;;15.97;26.69;99808.75;5016017;28;20033;-59
2021/04/26 06:01:54;;;;;;;14.40;3.17;;;;;;;15.26;27.92;99807.25;5015030;28;20452;-59
2021/04/26 06:04:19;;;;;;;14.73;3.42;;;;;;;14.61;28.75;99802.91;5014629;28;20030;-59
2021/04/26 06:06:45;;;;;;;19.17;3.60;;;;;;;14.62;29.14;99799.94;5015164;28;20447;-61
2021/04/26 06:09:10;;;;;;;10.95;3.30;;;;;;;16.51;26.55;99808.41;5016019;28;20080;-60
2021/04/26 06:11:36;;;;;;;10.48;3.20;;;;;;;16.40;26.45;99812.16;5013678;28;20068;-59
2021/04/26 06:14:01;;;;;;;17.00;3.13;;;;;;;16.17;26.56;99822.38;5015608;28;20038;-59
2021/04/26 06:16:27;;;;;;;15.10;3.17;;;;;;;16.16;26.59;99823.44;5015339;28;20092;-61
2021/04/26 06:18:52;;;;;;;18.38;4.03;;;;;;;16.24;26.40;99819.41;5015552;28;20029;-59
2021/04/26 06:21:17;;;;;;;31.50;3.80;;;;;;;16.02;26.85;99816.88;5015203;28;20049;-60
2021/04/26 06:23:43;;;;;;;41.70;4.50;;;;;;;14.37;29.47;99824.75;5015417;28;20095;-60
2021/04/26 06:26:08;;;;;;;33.65;5.30;;;;;;;14.29;29.42;99825.19;5015070;28;20029;-60
2021/04/26 06:28:34;;;;;;;28.98;3.97;;;;;;;16.20;26.80;99828.31;5015336;28;20025;-60
2021/04/26 06:30:59;;;;;;;13.23;3.83;;;;;;;17.09;25.77;99823.66;5014978;28;20034;-60
2021/04/26 06:33:25;;;;;;;17.85;4.32;;;;;;;15.16;28.40;99820.66;5015300;28;20531;-60
2021/04/26 06:35:51;;;;;;;25.13;5.10;;;;;;;16.28;27.25;99817.81;5013102;28;20444;-59
2021/04/26 06:38:17;;;;;;;23.10;4.47;;;;;;;16.07;27.27;99819.59;5014671;28;20041;-60
2021/04/26 06:40:43;;;;;;;22.70;3.97;;;;;;;16.57;26.20;99823.56;5014776;28;20041;-60
2021/04/26 06:43:09;;;;;;;17.92;4.25;;;;;;;16.92;26.30;99822.00;5015218;28;20385;-60
2021/04/26 06:45:34;;;;;;;25.63;4.80;;;;;;;17.18;26.04;99824.75;5014723;28;20400;-60
2021/04/26 06:48:00;;;;;;;13.77;3.80;;;;;;;16.48;26.74;99818.94;5014924;28;20052;-60
2021/04/26 06:50:26;;;;;;;9.35;2.80;;;;;;;17.12;24.23;99817.69;5014449;28;20026;-60
2021/04/26 06:52:53;;;;;;;13.27;2.72;;;;;;;14.29;27.40;99816.28;5014817;28;20112;-60
2021/04/26 06:55:19;;;;;;;9.75;3.05;;;;;;;15.13;26.72;99815.78;5014699;28;20018;-60
2021/04/26 06:57:45;;;;;;;5.20;2.65;;;;;;;13.45;28.41;99814.66;5014813;28;20022;-60
2021/04/26 07:00:11;;;;;;;7.72;2.80;;;;;;;15.51;26.40;99811.19;5029673;28;20117;-60
2021/04/26 07:02:36;;;;;;;8.05;2.85;;;;;;;15.02;26.56;99809.47;5014794;28;20029;-60
2021/04/26 07:05:02;;;;;;;8.75;2.70;;;;;;;15.92;25.24;99806.03;5014277;28;20026;-60
2021/04/26 07:07:28;;;;;;;9.32;2.63;;;;;;;13.65;28.06;99801.47;5046310;28;20042;-60
2021/04/26 07:09:53;;;;;;;6.05;2.25;;;;;;;14.08;28.56;99793.66;5014617;28;20412;-60
2021/04/26 07:12:19;;;;;;;6.13;2.53;;;;;;;15.20;26.50;99794.78;5013987;28;20034;-60
2021/04/26 07:14:44;;;;;;;4.75;2.33;;;;;;;15.62;25.51;99796.66;5014563;28;20030;-59
2021/04/26 07:17:09;;;;;;;6.90;2.35;;;;;;;14.57;25.73;99793.69;5011986;28;20558;-60
2021/04/26 07:19:35;;;;;;;5.88;2.28;;;;;;;14.93;25.81;99794.03;5014394;28;20030;-60
2021/04/26 07:22:00;;;;;;;3.22;2.00;;;;;;;13.93;26.30;99797.81;5013779;28;20483;-60
2021/04/26 07:24:26;;;;;;;4.25;2.25;;;;;;;13.06;27.29;99788.47;5013184;28;20025;-59
2021/04/26 07:26:51;;;;;;;4.72;2.30;;;;;;;13.36;27.86;99792.75;5013116;28;20088;-59
2021/04/26 07:29:17;;;;;;;6.22;2.30;;;;;;;14.34;26.55;99784.00;5013786;28;20033;-59
2021/04/26 07:31:43;;;;;;;7.85;2.40;;;;;;;14.16;26.27;99785.16;5013382;28;20103;-60
2021/04/26 07:34:08;;;;;;;9.20;2.13;;;;;;;12.71;26.89;99786.03;5009422;28;20022;-60
2021/04/26 07:36:33;;;;;;;6.13;2.00;;;;;;;12.21;27.78;99776.78;5013275;28;20026;-60
2021/04/26 07:38:59;;;;;;;6.05;2.20;;;;;;;12.84;27.19;99774.13;5013918;28;20026;-59
2021/04/26 07:41:24;;;;;;;4.32;2.38;;;;;;;12.94;27.45;99777.78;5013660;28;20030;-60
2021/04/26 07:43:50;;;;;;;3.35;1.90;;;;;;;13.33;26.74;99777.91;5013932;28;20053;-61
2021/04/26 07:46:15;;;;;;;8.85;2.30;;;;;;;12.00;28.13;99780.13;5012363;28;20038;-61
2021/04/26 07:48:41;;;;;;;4.57;2.25;;;;;;;12.32;28.31;99771.59;5013607;28;20022;-59
2021/04/26 07:51:06;;;;;;;5.65;2.20;;;;;;;12.71;27.94;99765.31;5013110;28;20068;-59
2021/04/26 07:53:32;;;;;;;4.78;2.15;;;;;;;12.00;28.10;99766.69;5005790;28;20510;-59
2021/04/26 07:55:58;;;;;;;4.45;2.20;;;;;;;11.72;28.42;99762.88;5005433;28;20543;-60
2021/04/26 07:58:23;;;;;;;8.32;2.35;;;;;;;12.57;27.92;99773.94;4994117;28;20025;-59
2021/04/26 08:00:48;;;;;;;3.25;2.22;;;;;;;12.58;27.12;99765.63;4993937;28;20038;-60
2021/04/26 08:03:17;;;;;;;9.05;2.10;;;;;;;12.54;26.76;99760.97;4994010;28;20026;-62
2021/04/26 08:05:43;;;;;;;2.53;1.83;;;;;;;11.76;27.48;99769.41;4993919;28;20034;-60
2021/04/26 08:08:08;;;;;;;4.50;2.10;;;;;;;11.68;27.48;99764.38;4993842;28;20511;-60
2021/04/26 08:10:34;;;;;;;4.80;1.92;;;;;;;11.52;27.27;99757.09;4980436;28;20054;-60
2021/04/26 08:13:00;;;;;;;2.88;1.70;;;;;;;10.72;27.19;99758.47;5013521;28;20037;-59
2021/04/26 08:15:26;;;;;;;4.88;2.28;;;;;;;11.26;27.23;99758.38;5013051;28;20036;-59
2021/04/26 08:17:52;;;;;;;5.78;2.08;;;;;;;10.53;27.42;99765.75;4996052;28;20026;-59
2021/04/26 08:20:17;;;;;;;7.57;2.10;;;;;;;10.95;27.26;99757.66;5010230;28;20030;-59
2021/04/26 08:22:43;;;;;;;3.63;1.90;;;;;;;11.54;26.26;99754.97;4993355;28;20410;-59
2021/04/26 08:25:08;;;;;;;3.08;1.60;;;;;;;10.70;26.51;99745.28;4991978;28;20456;-59
2021/04/26 08:27:34;;;;;;;3.53;1.70;;;;;;;11.80;25.60;99750.94;4993504;28;20358;-59
2021/04/26 08:30:00;;;;;;;4.00;1.75;;;;;;;11.61;26.98;99737.69;4993731;28;20032;-62
2021/04/26 08:32:26;;;;;;;2.35;1.80;;;;;;;11.77;25.43;99752.25;4993081;28;20041;-61
2021/04/26 08:34:52;;;;;;;4.85;2.15;;;;;;;11.34;26.51;99750.78;4993758;28;20030;-60
2021/04/26 08:37:17;;;;;;;2.97;1.83;;;;;;;11.94;24.90;99744.28;4993028;28;20101;-60
2021/04/26 08:39:43;;;;;;;10.70;2.05;;;;;;;10.66;26.15;99743.28;4993580;28;20059;-60
2021/04/26 08:42:08;;;;;;;2.00;1.67;;;;;;;11.82;25.63;99740.78;4993042;28;20035;-60
2021/04/26 08:44:33;;;;;;;3.17;1.80;;;;;;;11.57;26.85;99743.75;4976227;28;20019;-60
2021/04/26 08:46:59;;;;;;;3.53;1.77;;;;;;;11.76;26.33;99739.88;4993096;28;20428;-60
2021/04/26 08:49:25;;;;;;;3.53;1.77;;;;;;;11.74;24.98;99733.91;4992484;28;20022;-60
2021/04/26 08:51:50;;;;;;;2.22;1.60;;;;;;;11.69;25.31;99736.50;4992886;28;20030;-60
2021/04/26 08:54:17;;;;;;;3.50;1.70;;;;;;;12.33;24.63;99731.06;4993547;28;20018;-61
2021/04/26 08:56:43;;;;;;;2.83;1.38;;;;;;;10.87;26.02;99723.97;4993018;28;20481;-61
2021/04/26 08:59:09;;;;;;;4.95;1.60;;;;;;;10.78;26.76;99736.06;4976031;28;20037;-60
2021/04/26 09:01:34;;;;;;;3.28;1.50;;;;;;;11.94;25.37;99735.41;4996866;28;20039;-61
2021/04/26 09:04:07;;;;;;;2.33;1.60;;;;;;;12.33;24.94;99724.84;4997529;28;20019;-61
2021/04/26 09:06:59;;;;;;;3.72;1.80;;;;;;;11.58;26.11;99726.59;4996613;28;20097;-61
2021/04/26 09:09:33;;;;;;;2.88;1.70;;;;;;;11.80;25.62;99719.53;4997248;28;20034;-62
2021/04/26 09:11:59;;;;;;;4.75;2.00;;;;;;;10.53;27.56;99729.06;4996655;28;20042;-61
2021/04/26 09:14:37;;;;;;;5.43;1.77;;;;;;;11.25;26.37;99713.81;4997106;28;20105;-60
2021/04/26 09:17:54;;;;;;;3.15;1.50;;;;;;;12.73;24.07;99712.09;4996651;28;20068;-60
2021/04/26 09:20:22;;;;;;;4.38;1.67;;;;;;;12.98;24.50;99718.94;4963634;28;20037;-60
2021/04/26 09:22:58;;;;;;;4.03;1.63;;;;;;;12.05;24.58;99721.13;4996804;28;20042;-61
2021/04/26 09:25:23;;;;;;;3.47;1.80;;;;;;;12.86;24.04;99721.72;4996465;28;20485;-60
2021/04/26 09:28:03;;;;;;;3.58;1.73;;;;;;;11.63;25.60;99715.97;4996906;28;20072;-60
2021/04/26 09:30:35;;;;;;;3.88;1.83;;;;;;;12.33;24.63;99719.47;4996076;28;20054;-60
2021/04/26 09:33:29;;;;;;;5.22;1.67;;;;;;;11.85;25.37;99714.25;4994685;28;20049;-60
2021/04/26 09:36:22;;;;;;;2.72;1.52;;;;;;;12.38;25.07;99712.31;4996365;28;20230;-60
2021/04/26 09:38:52;;;;;;;3.00;1.60;;;;;;;12.29;25.02;99706.50;4996636;28;20082;-60
2021/04/26 09:41:26;;;;;;;2.85;1.73;;;;;;;11.63;26.01;99705.22;4978457;28;20046;-60
2021/04/26 09:44:01;;;;;;;3.13;1.70;;;;;;;11.80;25.11;99695.34;4996796;28;20432;-61
2021/04/26 09:46:51;;;;;;;3.95;1.90;;;;;;;11.59;26.47;99701.41;4994921;28;20564;-60
2021/04/26 09:49:21;;;;;;;3.85;1.80;;;;;;;10.88;27.84;99688.03;4996333;28;20057;-60
2021/04/26 09:51:49;;;;;;;3.20;1.67;;;;;;;11.94;25.64;99692.44;5010172;28;20044;-60
2021/04/26 09:54:14;;;;;;;3.42;1.70;;;;;;;11.61;25.46;99685.88;5014778;28;20476;-60
2021/04/26 09:56:41;;;;;;;5.15;1.90;;;;;;;11.51;25.18;99693.72;5015632;28;20069;-60
2021/04/26 09:59:07;;;;;;;3.03;1.80;;;;;;;11.39;25.85;99691.06;5015671;28;20072;-60
2021/04/26 10:01:33;;;;;;;2.40;1.70;;;;;;;11.31;26.07;99686.88;5015248;28;20046;-60
2021/04/26 10:03:58;;;;;;;3.58;1.60;;;;;;;12.38;24.64;99695.34;5015793;28;20072;-60
2021/04/26 10:06:24;;;;;;;3.47;1.80;;;;;;;12.22;24.48;99684.34;5014786;28;20045;-60
2021/04/26 10:08:51;;;;;;;3.47;1.60;;;;;;;12.71;24.42;99673.88;5015604;28;20428;-60
2021/04/26 10:11:17;;;;;;;4.47;1.77;;;;;;;12.15;24.48;99686.38;5013743;28;20084;-60
2021/04/26 10:13:43;;;;;;;2.65;1.70;;;;;;;12.76;23.65;99665.06;5015649;28;20103;-60
2021/04/26 10:16:14;;;;;;;2.70;1.80;;;;;;;12.78;23.15;99673.72;5015052;28;20038;-60
2021/04/26 10:18:41;;;;;;;4.32;1.70;;;;;;;11.73;24.92;99659.81;5015417;28;20018;-60
2021/04/26 10:21:18;;;;;;;4.05;1.80;;;;;;;12.06;24.22;99669.84;5013857;28;20065;-60
2021/04/26 10:23:45;;;;;;;5.50;1.88;;;;;;;12.78;23.93;99662.13;5015240;28;20481;-60
2021/04/26 10:26:43;;;;;;;2.05;1.60;;;;;;;11.91;25.18;99649.94;5005378;28;20493;-60
2021/04/26 10:29:09;;;;;;;8.15;1.90;;;;;;;11.78;24.97;99629.50;4995672;28;20034;-60
2021/04/26 10:32:02;;;;;;;4.18;2.63;;;;;;;12.00;25.14;99659.22;4995234;28;20039;-60
2021/04/26 10:34:33;;;;;;;2.30;1.60;;;;;;;12.32;24.02;99640.72;4995518;28;20469;-60
2021/04/26 10:37:03;;;;;;;2.38;1.80;;;;;;;12.98;23.65;99640.06;4995056;28;20041;-60
2021/04/26 10:39:29;;;;;;;4.33;2.00;;;;;;;14.70;22.78;99639.50;4978781;28;20056;-60
2021/04/26 10:41:59;;;;;;;3.80;1.83;;;;;;;13.39;22.38;99636.09;4994920;28;20359;-60
2021/04/26 10:44:37;;;;;;;4.07;1.85;;;;;;;14.23;22.82;99624.03;4995614;28;20026;-60
2021/04/26 10:47:15;;;;;;;3.00;1.50;;;;;;;13.46;22.39;99620.56;5011329;28;20407;-60
2021/04/26 10:49:41;;;;;;;2.42;1.60;;;;;;;12.51;24.82;99619.78;5014943;28;20033;-60
2021/04/26 10:52:33;;;;;;;2.95;1.88;;;;;;;12.56;25.21;99609.09;5014184;28;20479;-60
2021/04/26 10:55:05;;;;;;;3.20;1.83;;;;;;;13.81;23.29;99598.56;5015041;28;20049;-60
2021/04/26 10:57:40;;;;;;;4.22;1.90;;;;;;;13.10;24.60;99590.50;5014654;28;20052;-60
2021/04/26 11:00:20;;;;;;;3.50;1.73;;;;;;;12.85;24.94;99598.22;5014400;28;20037;-60
2021/04/26 11:02:49;;;;;;;3.90;1.98;;;;;;;11.80;26.64;99601.38;5014012;28;20030;-61
2021/04/26 11:05:16;;;;;;;6.22;1.85;;;;;;;11.87;26.13;99585.94;4996847;28;20048;-61
2021/04/26 11:07:42;;;;;;;3.03;1.88;;;;;;;13.03;24.90;99591.72;5014371;28;20041;-61
2021/04/26 11:10:26;;;;;;;4.15;1.90;;;;;;;12.48;25.84;99582.63;5013906;28;20535;-60
2021/04/26 11:12:52;;;;;;;2.72;1.75;;;;;;;12.24;25.25;99574.75;5014400;28;20041;-61
2021/04/26 11:15:18;;;;;;;3.13;2.00;;;;;;;13.02;24.53;99561.31;5014151;28;20018;-61
2021/04/26 11:17:46;;;;;;;2.65;1.65;;;;;;;12.62;24.10;99561.59;5014558;28;20112;-62
2021/04/26 11:20:25;;;;;;;3.03;1.50;;;;;;;11.59;25.36;99569.84;5013847;28;20034;-61
2021/04/26 11:22:56;;;;;;;2.63;1.55;;;;;;;12.20;25.11;99559.34;5013958;28;20018;-60
2021/04/26 11:25:38;;;;;;;4.68;1.90;;;;;;;12.09;25.26;99548.44;5013890;28;20056;-61
2021/04/26 11:28:04;;;;;;;3.00;1.73;;;;;;;12.10;24.15;99549.25;5014002;28;20018;-61
2021/04/26 11:30:32;;;;;;;5.88;2.10;;;;;;;12.30;24.38;99538.84;5013710;28;20057;-61
2021/04/26 11:33:01;;;;;;;3.42;1.67;;;;;;;12.54;24.03;99533.25;5014296;28;20058;-61
2021/04/26 11:35:27;;;;;;;6.80;1.90;;;;;;;12.29;24.99;99525.63;5013782;28;20042;-61
2021/04/26 11:37:52;;;;;;;5.97;1.90;;;;;;;11.31;26.33;99520.50;5013924;28;20076;-61
2021/04/26 11:40:22;;;;;;;4.50;1.85;;;;;;;12.39;25.28;99523.09;5013861;28;20385;-62